sensor_id;sensor_type;location;lat;lon;timestamp;P1;durP1;ratioP1;P2;durP2;ratioP2
79149;SDS011;68563;45.644;13.782;2023-05-14T00:01:41;1.17;;;0.90;;
79149;SDS011;68563;45.644;13.782;2023-05-14T00:04:06;1.75;;;1.00;;
79149;SDS011;68563;45.644;13.782;2023-05-14T00:06:31;2.72;;;1.00;;
79149;SDS011;68563;45.644;13.782;2023-05-14T00:08:57;1.23;;;1.00;;
79149;SDS011;68563;45.644;13.782;2023-05-14T00:11:22;1.85;;;0.93;;
79149;SDS011;68563;45.644;13.782;2023-05-14T00:13:48;1.33;;;0.95;;
79149;SDS011;68563;45.644;13.782;2023-05-14T00:16:14;2.75;;;0.90;;
79149;SDS011;68563;45.644;13.782;2023-05-14T00:18:40;2.33;;;1.23;;
79149;SDS011;68563;45.644;13.782;2023-05-14T00:21:05;1.45;;;1.00;;
79149;SDS011;68563;45.644;13.782;2023-05-14T00:23:31;2.35;;;0.90;;
79149;SDS011;68563;45.644;13.782;2023-05-14T00:25:56;2.85;;;0.95;;
79149;SDS011;68563;45.644;13.782;2023-05-14T00:28:22;1.65;;;1.00;;
79149;SDS011;68563;45.644;13.782;2023-05-14T00:30:47;1.45;;;1.10;;
79149;SDS011;68563;45.644;13.782;2023-05-14T00:33:13;1.33;;;1.00;;
79149;SDS011;68563;45.644;13.782;2023-05-14T00:35:38;1.52;;;1.10;;
79149;SDS011;68563;45.644;13.782;2023-05-14T00:38:03;1.50;;;1.00;;
79149;SDS011;68563;45.644;13.782;2023-05-14T00:40:29;1.10;;;1.00;;
79149;SDS011;68563;45.644;13.782;2023-05-14T00:42:54;1.08;;;0.95;;
79149;SDS011;68563;45.644;13.782;2023-05-14T00:45:20;1.80;;;1.30;;
79149;SDS011;68563;45.644;13.782;2023-05-14T00:47:46;5.57;;;1.10;;
79149;SDS011;68563;45.644;13.782;2023-05-14T00:50:13;1.25;;;1.13;;
79149;SDS011;68563;45.644;13.782;2023-05-14T00:52:40;1.70;;;1.30;;
79149;SDS011;68563;45.644;13.782;2023-05-14T00:55:06;1.77;;;1.40;;
79149;SDS011;68563;45.644;13.782;2023-05-14T00:57:32;1.77;;;1.20;;
79149;SDS011;68563;45.644;13.782;2023-05-14T01:00:00;2.83;;;1.50;;
79149;SDS011;68563;45.644;13.782;2023-05-14T01:02:25;2.85;;;1.20;;
79149;SDS011;68563;45.644;13.782;2023-05-14T01:04:51;3.63;;;1.30;;
79149;SDS011;68563;45.644;13.782;2023-05-14T01:07:27;1.48;;;1.30;;
79149;SDS011;68563;45.644;13.782;2023-05-14T01:15:18;1.90;;;1.45;;
79149;SDS011;68563;45.644;13.782;2023-05-14T01:17:53;2.15;;;1.42;;
79149;SDS011;68563;45.644;13.782;2023-05-14T01:20:23;2.15;;;1.52;;
79149;SDS011;68563;45.644;13.782;2023-05-14T01:22:49;2.60;;;1.40;;
79149;SDS011;68563;45.644;13.782;2023-05-14T01:25:14;1.40;;;1.30;;
79149;SDS011;68563;45.644;13.782;2023-05-14T01:30:22;2.00;;;1.40;;
79149;SDS011;68563;45.644;13.782;2023-05-14T01:33:09;2.28;;;1.60;;
79149;SDS011;68563;45.644;13.782;2023-05-14T01:35:37;2.42;;;1.40;;
79149;SDS011;68563;45.644;13.782;2023-05-14T01:38:04;2.13;;;1.55;;
79149;SDS011;68563;45.644;13.782;2023-05-14T01:40:33;1.83;;;1.30;;
79149;SDS011;68563;45.644;13.782;2023-05-14T01:43:00;2.20;;;1.50;;
79149;SDS011;68563;45.644;13.782;2023-05-14T01:45:27;1.70;;;1.25;;
79149;SDS011;68563;45.644;13.782;2023-05-14T01:47:54;2.13;;;1.80;;
79149;SDS011;68563;45.644;13.782;2023-05-14T01:50:19;1.80;;;1.30;;
79149;SDS011;68563;45.644;13.782;2023-05-14T01:52:45;2.20;;;1.38;;
79149;SDS011;68563;45.644;13.782;2023-05-14T01:55:12;3.45;;;1.40;;
79149;SDS011;68563;45.644;13.782;2023-05-14T01:57:38;3.80;;;1.50;;
79149;SDS011;68563;45.644;13.782;2023-05-14T02:00:03;1.98;;;1.50;;
79149;SDS011;68563;45.644;13.782;2023-05-14T02:02:29;3.15;;;1.52;;
79149;SDS011;68563;45.644;13.782;2023-05-14T02:04:55;2.17;;;1.50;;
79149;SDS011;68563;45.644;13.782;2023-05-14T02:07:20;1.85;;;1.50;;
79149;SDS011;68563;45.644;13.782;2023-05-14T02:09:45;1.83;;;1.50;;
79149;SDS011;68563;45.644;13.782;2023-05-14T02:12:11;2.22;;;1.52;;
79149;SDS011;68563;45.644;13.782;2023-05-14T02:14:36;2.03;;;1.50;;
79149;SDS011;68563;45.644;13.782;2023-05-14T02:17:02;1.77;;;1.38;;
79149;SDS011;68563;45.644;13.782;2023-05-14T02:19:28;1.73;;;1.50;;
79149;SDS011;68563;45.644;13.782;2023-05-14T02:21:53;4.35;;;1.80;;
79149;SDS011;68563;45.644;13.782;2023-05-14T02:24:19;2.38;;;1.48;;
79149;SDS011;68563;45.644;13.782;2023-05-14T02:26:44;1.98;;;1.63;;
79149;SDS011;68563;45.644;13.782;2023-05-14T02:29:10;1.75;;;1.50;;
79149;SDS011;68563;45.644;13.782;2023-05-14T02:31:35;1.92;;;1.40;;
79149;SDS011;68563;45.644;13.782;2023-05-14T02:34:01;2.40;;;1.73;;
79149;SDS011;68563;45.644;13.782;2023-05-14T02:36:30;1.83;;;1.50;;
79149;SDS011;68563;45.644;13.782;2023-05-14T02:38:57;1.73;;;1.50;;
79149;SDS011;68563;45.644;13.782;2023-05-14T02:41:23;1.95;;;1.60;;
79149;SDS011;68563;45.644;13.782;2023-05-14T02:43:48;2.08;;;1.50;;
79149;SDS011;68563;45.644;13.782;2023-05-14T02:46:14;2.92;;;1.52;;
79149;SDS011;68563;45.644;13.782;2023-05-14T02:48:39;2.28;;;2.00;;
79149;SDS011;68563;45.644;13.782;2023-05-14T02:51:05;1.80;;;1.50;;
79149;SDS011;68563;45.644;13.782;2023-05-14T02:53:31;2.20;;;1.52;;
79149;SDS011;68563;45.644;13.782;2023-05-14T02:55:57;4.05;;;1.50;;
79149;SDS011;68563;45.644;13.782;2023-05-14T02:58:22;2.33;;;1.85;;
79149;SDS011;68563;45.644;13.782;2023-05-14T03:00:47;2.63;;;1.58;;
79149;SDS011;68563;45.644;13.782;2023-05-14T03:03:13;1.67;;;1.50;;
79149;SDS011;68563;45.644;13.782;2023-05-14T03:05:38;1.70;;;1.52;;
79149;SDS011;68563;45.644;13.782;2023-05-14T03:08:03;2.20;;;1.60;;
79149;SDS011;68563;45.644;13.782;2023-05-14T03:10:29;1.85;;;1.52;;
79149;SDS011;68563;45.644;13.782;2023-05-14T03:12:56;2.67;;;1.80;;
79149;SDS011;68563;45.644;13.782;2023-05-14T03:15:22;2.53;;;1.50;;
79149;SDS011;68563;45.644;13.782;2023-05-14T03:17:47;2.03;;;1.40;;
79149;SDS011;68563;45.644;13.782;2023-05-14T03:20:13;1.92;;;1.73;;
79149;SDS011;68563;45.644;13.782;2023-05-14T03:22:38;1.90;;;1.50;;
79149;SDS011;68563;45.644;13.782;2023-05-14T03:25:04;1.80;;;1.58;;
79149;SDS011;68563;45.644;13.782;2023-05-14T03:27:30;1.58;;;1.27;;
79149;SDS011;68563;45.644;13.782;2023-05-14T03:29:55;1.25;;;1.10;;
79149;SDS011;68563;45.644;13.782;2023-05-14T03:32:21;1.77;;;1.40;;
79149;SDS011;68563;45.644;13.782;2023-05-14T03:34:46;1.95;;;1.70;;
79149;SDS011;68563;45.644;13.782;2023-05-14T03:37:11;2.00;;;1.45;;
79149;SDS011;68563;45.644;13.782;2023-05-14T03:39:37;1.50;;;1.20;;
79149;SDS011;68563;45.644;13.782;2023-05-14T03:42:02;1.40;;;1.20;;
79149;SDS011;68563;45.644;13.782;2023-05-14T03:44:28;1.55;;;1.20;;
79149;SDS011;68563;45.644;13.782;2023-05-14T03:46:53;2.03;;;1.20;;
79149;SDS011;68563;45.644;13.782;2023-05-14T03:49:19;1.73;;;1.15;;
79149;SDS011;68563;45.644;13.782;2023-05-14T03:51:45;1.77;;;1.30;;
79149;SDS011;68563;45.644;13.782;2023-05-14T03:54:10;2.92;;;1.20;;
79149;SDS011;68563;45.644;13.782;2023-05-14T03:56:35;2.58;;;1.30;;
79149;SDS011;68563;45.644;13.782;2023-05-14T03:59:01;3.60;;;1.30;;
79149;SDS011;68563;45.644;13.782;2023-05-14T04:01:26;1.60;;;1.20;;
79149;SDS011;68563;45.644;13.782;2023-05-14T04:03:52;1.65;;;1.40;;
79149;SDS011;68563;45.644;13.782;2023-05-14T04:06:17;2.42;;;1.27;;
79149;SDS011;68563;45.644;13.782;2023-05-14T04:08:43;1.70;;;1.40;;
79149;SDS011;68563;45.644;13.782;2023-05-14T04:11:08;1.20;;;1.10;;
79149;SDS011;68563;45.644;13.782;2023-05-14T04:13:34;1.60;;;1.38;;
79149;SDS011;68563;45.644;13.782;2023-05-14T04:15:59;1.33;;;1.10;;
79149;SDS011;68563;45.644;13.782;2023-05-14T04:18:24;1.10;;;0.90;;
79149;SDS011;68563;45.644;13.782;2023-05-14T04:20:50;0.88;;;0.80;;
79149;SDS011;68563;45.644;13.782;2023-05-14T04:23:15;0.70;;;0.70;;
79149;SDS011;68563;45.644;13.782;2023-05-14T04:25:41;1.77;;;0.70;;
79149;SDS011;68563;45.644;13.782;2023-05-14T04:28:06;0.88;;;0.70;;
79149;SDS011;68563;45.644;13.782;2023-05-14T04:30:31;1.17;;;0.70;;
79149;SDS011;68563;45.644;13.782;2023-05-14T04:32:57;1.13;;;0.68;;
79149;SDS011;68563;45.644;13.782;2023-05-14T04:35:23;0.75;;;0.52;;
79149;SDS011;68563;45.644;13.782;2023-05-14T04:37:49;0.68;;;0.63;;
79149;SDS011;68563;45.644;13.782;2023-05-14T04:40:14;1.02;;;0.73;;
79149;SDS011;68563;45.644;13.782;2023-05-14T04:42:43;1.00;;;0.68;;
79149;SDS011;68563;45.644;13.782;2023-05-14T04:45:08;0.60;;;0.50;;
79149;SDS011;68563;45.644;13.782;2023-05-14T04:47:34;0.60;;;0.60;;
79149;SDS011;68563;45.644;13.782;2023-05-14T04:50:00;0.50;;;0.50;;
79149;SDS011;68563;45.644;13.782;2023-05-14T04:52:26;0.70;;;0.68;;
79149;SDS011;68563;45.644;13.782;2023-05-14T04:54:51;0.70;;;0.70;;
79149;SDS011;68563;45.644;13.782;2023-05-14T04:57:17;0.93;;;0.60;;
79149;SDS011;68563;45.644;13.782;2023-05-14T04:59:42;0.88;;;0.55;;
79149;SDS011;68563;45.644;13.782;2023-05-14T05:02:08;1.27;;;0.80;;
79149;SDS011;68563;45.644;13.782;2023-05-14T05:04:33;0.90;;;0.60;;
79149;SDS011;68563;45.644;13.782;2023-05-14T05:06:58;0.90;;;0.80;;
79149;SDS011;68563;45.644;13.782;2023-05-14T05:09:24;0.90;;;0.70;;
79149;SDS011;68563;45.644;13.782;2023-05-14T05:11:49;0.70;;;0.55;;
79149;SDS011;68563;45.644;13.782;2023-05-14T05:14:15;0.93;;;0.40;;
79149;SDS011;68563;45.644;13.782;2023-05-14T05:16:40;0.80;;;0.60;;
79149;SDS011;68563;45.644;13.782;2023-05-14T05:19:06;0.40;;;0.40;;
79149;SDS011;68563;45.644;13.782;2023-05-14T05:21:31;1.25;;;0.70;;
79149;SDS011;68563;45.644;13.782;2023-05-14T05:23:57;1.02;;;0.63;;
79149;SDS011;68563;45.644;13.782;2023-05-14T05:26:23;0.70;;;0.70;;
79149;SDS011;68563;45.644;13.782;2023-05-14T05:28:50;0.85;;;0.60;;
79149;SDS011;68563;45.644;13.782;2023-05-14T05:31:16;5.35;;;0.50;;
79149;SDS011;68563;45.644;13.782;2023-05-14T05:33:41;1.33;;;0.60;;
79149;SDS011;68563;45.644;13.782;2023-05-14T05:36:07;1.33;;;0.50;;
79149;SDS011;68563;45.644;13.782;2023-05-14T05:38:32;1.35;;;0.60;;
79149;SDS011;68563;45.644;13.782;2023-05-14T05:40:58;0.75;;;0.68;;
79149;SDS011;68563;45.644;13.782;2023-05-14T05:43:23;0.60;;;0.60;;
79149;SDS011;68563;45.644;13.782;2023-05-14T05:45:48;1.55;;;0.43;;
79149;SDS011;68563;45.644;13.782;2023-05-14T05:48:14;0.85;;;0.50;;
79149;SDS011;68563;45.644;13.782;2023-05-14T05:50:39;1.50;;;0.60;;
79149;SDS011;68563;45.644;13.782;2023-05-14T05:53:05;1.58;;;0.50;;
79149;SDS011;68563;45.644;13.782;2023-05-14T05:55:30;2.08;;;0.57;;
79149;SDS011;68563;45.644;13.782;2023-05-14T05:57:55;1.20;;;0.80;;
79149;SDS011;68563;45.644;13.782;2023-05-14T06:00:21;0.63;;;0.60;;
79149;SDS011;68563;45.644;13.782;2023-05-14T06:02:47;1.63;;;0.55;;
79149;SDS011;68563;45.644;13.782;2023-05-14T06:05:13;1.40;;;0.70;;
79149;SDS011;68563;45.644;13.782;2023-05-14T06:07:38;0.95;;;0.75;;
79149;SDS011;68563;45.644;13.782;2023-05-14T06:10:03;0.50;;;0.50;;
79149;SDS011;68563;45.644;13.782;2023-05-14T06:12:30;0.63;;;0.63;;
79149;SDS011;68563;45.644;13.782;2023-05-14T06:14:55;0.65;;;0.65;;
79149;SDS011;68563;45.644;13.782;2023-05-14T06:17:22;1.42;;;0.70;;
79149;SDS011;68563;45.644;13.782;2023-05-14T06:19:48;0.50;;;0.50;;
79149;SDS011;68563;45.644;13.782;2023-05-14T06:22:14;0.50;;;0.50;;
79149;SDS011;68563;45.644;13.782;2023-05-14T06:24:39;1.90;;;0.68;;
79149;SDS011;68563;45.644;13.782;2023-05-14T06:27:05;1.50;;;0.60;;
79149;SDS011;68563;45.644;13.782;2023-05-14T06:29:30;0.30;;;0.30;;
79149;SDS011;68563;45.644;13.782;2023-05-14T06:31:56;0.43;;;0.30;;
79149;SDS011;68563;45.644;13.782;2023-05-14T06:34:25;0.88;;;0.40;;
79149;SDS011;68563;45.644;13.782;2023-05-14T06:36:50;0.90;;;0.40;;
79149;SDS011;68563;45.644;13.782;2023-05-14T06:39:16;0.60;;;0.40;;
79149;SDS011;68563;45.644;13.782;2023-05-14T06:41:41;0.50;;;0.40;;
79149;SDS011;68563;45.644;13.782;2023-05-14T06:44:07;0.60;;;0.60;;
79149;SDS011;68563;45.644;13.782;2023-05-14T06:46:32;0.75;;;0.50;;
79149;SDS011;68563;45.644;13.782;2023-05-14T06:48:57;0.50;;;0.50;;
79149;SDS011;68563;45.644;13.782;2023-05-14T06:51:23;0.52;;;0.50;;
79149;SDS011;68563;45.644;13.782;2023-05-14T06:53:48;1.85;;;0.70;;
79149;SDS011;68563;45.644;13.782;2023-05-14T06:56:14;0.70;;;0.50;;
79149;SDS011;68563;45.644;13.782;2023-05-14T06:58:40;0.50;;;0.50;;
79149;SDS011;68563;45.644;13.782;2023-05-14T07:01:05;1.13;;;0.50;;
79149;SDS011;68563;45.644;13.782;2023-05-14T07:03:31;0.60;;;0.50;;
79149;SDS011;68563;45.644;13.782;2023-05-14T07:05:56;2.53;;;0.57;;
79149;SDS011;68563;45.644;13.782;2023-05-14T07:08:22;1.27;;;0.70;;
79149;SDS011;68563;45.644;13.782;2023-05-14T07:10:47;1.00;;;0.60;;
79149;SDS011;68563;45.644;13.782;2023-05-14T07:13:13;1.80;;;0.65;;
79149;SDS011;68563;45.644;13.782;2023-05-14T07:15:38;0.80;;;0.65;;
79149;SDS011;68563;45.644;13.782;2023-05-14T07:18:03;1.58;;;0.70;;
79149;SDS011;68563;45.644;13.782;2023-05-14T07:20:29;1.60;;;0.52;;
79149;SDS011;68563;45.644;13.782;2023-05-14T07:22:54;1.30;;;0.70;;
79149;SDS011;68563;45.644;13.782;2023-05-14T07:25:20;0.80;;;0.55;;
79149;SDS011;68563;45.644;13.782;2023-05-14T07:27:46;0.63;;;0.50;;
79149;SDS011;68563;45.644;13.782;2023-05-14T07:30:12;0.82;;;0.65;;
79149;SDS011;68563;45.644;13.782;2023-05-14T07:32:37;0.40;;;0.40;;
79149;SDS011;68563;45.644;13.782;2023-05-14T07:35:03;0.65;;;0.47;;
79149;SDS011;68563;45.644;13.782;2023-05-14T07:37:28;1.15;;;0.50;;
79149;SDS011;68563;45.644;13.782;2023-05-14T07:39:54;2.67;;;0.57;;
79149;SDS011;68563;45.644;13.782;2023-05-14T07:42:20;0.93;;;0.52;;
79149;SDS011;68563;45.644;13.782;2023-05-14T07:44:45;0.60;;;0.60;;
79149;SDS011;68563;45.644;13.782;2023-05-14T07:47:10;0.70;;;0.57;;
79149;SDS011;68563;45.644;13.782;2023-05-14T07:49:36;3.45;;;0.60;;
79149;SDS011;68563;45.644;13.782;2023-05-14T07:52:01;0.57;;;0.45;;
79149;SDS011;68563;45.644;13.782;2023-05-14T07:54:27;0.50;;;0.50;;
79149;SDS011;68563;45.644;13.782;2023-05-14T07:56:52;0.88;;;0.50;;
79149;SDS011;68563;45.644;13.782;2023-05-14T07:59:17;1.10;;;0.60;;
79149;SDS011;68563;45.644;13.782;2023-05-14T08:01:43;0.55;;;0.40;;
79149;SDS011;68563;45.644;13.782;2023-05-14T08:04:08;0.70;;;0.70;;
79149;SDS011;68563;45.644;13.782;2023-05-14T08:06:35;0.43;;;0.40;;
79149;SDS011;68563;45.644;13.782;2023-05-14T08:09:01;1.85;;;0.57;;
79149;SDS011;68563;45.644;13.782;2023-05-14T08:11:29;0.43;;;0.43;;
79149;SDS011;68563;45.644;13.782;2023-05-14T08:13:55;0.75;;;0.52;;
79149;SDS011;68563;45.644;13.782;2023-05-14T08:16:21;0.50;;;0.50;;
79149;SDS011;68563;45.644;13.782;2023-05-14T08:18:47;0.50;;;0.43;;
79149;SDS011;68563;45.644;13.782;2023-05-14T08:21:12;0.60;;;0.50;;
79149;SDS011;68563;45.644;13.782;2023-05-14T08:23:38;0.57;;;0.50;;
79149;SDS011;68563;45.644;13.782;2023-05-14T08:26:03;0.40;;;0.40;;
79149;SDS011;68563;45.644;13.782;2023-05-14T08:28:29;1.33;;;0.40;;
79149;SDS011;68563;45.644;13.782;2023-05-14T08:30:54;0.50;;;0.50;;
79149;SDS011;68563;45.644;13.782;2023-05-14T08:33:19;1.13;;;0.50;;
79149;SDS011;68563;45.644;13.782;2023-05-14T08:35:45;1.25;;;0.52;;
79149;SDS011;68563;45.644;13.782;2023-05-14T08:38:10;0.68;;;0.50;;
79149;SDS011;68563;45.644;13.782;2023-05-14T08:40:36;0.80;;;0.68;;
79149;SDS011;68563;45.644;13.782;2023-05-14T08:43:01;1.08;;;0.50;;
79149;SDS011;68563;45.644;13.782;2023-05-14T08:45:30;1.00;;;0.70;;
79149;SDS011;68563;45.644;13.782;2023-05-14T08:47:58;2.60;;;0.52;;
79149;SDS011;68563;45.644;13.782;2023-05-14T08:50:24;1.05;;;0.60;;
79149;SDS011;68563;45.644;13.782;2023-05-14T08:52:50;1.02;;;0.60;;
79149;SDS011;68563;45.644;13.782;2023-05-14T08:55:17;0.60;;;0.60;;
79149;SDS011;68563;45.644;13.782;2023-05-14T08:57:43;1.13;;;0.43;;
79149;SDS011;68563;45.644;13.782;2023-05-14T09:00:08;0.50;;;0.50;;
79149;SDS011;68563;45.644;13.782;2023-05-14T09:02:38;4.97;;;1.23;;
79149;SDS011;68563;45.644;13.782;2023-05-14T09:05:04;0.90;;;0.73;;
79149;SDS011;68563;45.644;13.782;2023-05-14T09:07:31;0.50;;;0.50;;
79149;SDS011;68563;45.644;13.782;2023-05-14T09:09:57;1.00;;;0.70;;
79149;SDS011;68563;45.644;13.782;2023-05-14T09:12:23;0.70;;;0.60;;
79149;SDS011;68563;45.644;13.782;2023-05-14T09:14:49;2.25;;;0.63;;
79149;SDS011;68563;45.644;13.782;2023-05-14T09:17:16;1.48;;;0.90;;
79149;SDS011;68563;45.644;13.782;2023-05-14T09:19:42;1.33;;;0.60;;
79149;SDS011;68563;45.644;13.782;2023-05-14T09:22:08;0.80;;;0.60;;
79149;SDS011;68563;45.644;13.782;2023-05-14T09:24:36;1.55;;;0.70;;
79149;SDS011;68563;45.644;13.782;2023-05-14T09:27:03;2.25;;;0.55;;
79149;SDS011;68563;45.644;13.782;2023-05-14T09:29:29;1.45;;;0.70;;
79149;SDS011;68563;45.644;13.782;2023-05-14T09:31:55;2.47;;;0.60;;
79149;SDS011;68563;45.644;13.782;2023-05-14T09:34:22;0.85;;;0.68;;
79149;SDS011;68563;45.644;13.782;2023-05-14T09:36:49;1.77;;;0.80;;
79149;SDS011;68563;45.644;13.782;2023-05-14T09:39:15;0.80;;;0.63;;
79149;SDS011;68563;45.644;13.782;2023-05-14T09:41:41;1.25;;;0.75;;
79149;SDS011;68563;45.644;13.782;2023-05-14T09:44:08;0.85;;;0.70;;
79149;SDS011;68563;45.644;13.782;2023-05-14T09:46:33;0.93;;;0.70;;
79149;SDS011;68563;45.644;13.782;2023-05-14T09:48:59;1.55;;;0.85;;
79149;SDS011;68563;45.644;13.782;2023-05-14T09:51:24;1.63;;;1.33;;
79149;SDS011;68563;45.644;13.782;2023-05-14T09:53:51;1.15;;;0.80;;
79149;SDS011;68563;45.644;13.782;2023-05-14T09:56:17;2.53;;;0.90;;
79149;SDS011;68563;45.644;13.782;2023-05-14T09:58:43;1.77;;;0.90;;
79149;SDS011;68563;45.644;13.782;2023-05-14T10:01:08;2.03;;;0.98;;
79149;SDS011;68563;45.644;13.782;2023-05-14T10:03:34;1.20;;;1.00;;
79149;SDS011;68563;45.644;13.782;2023-05-14T10:06:01;1.30;;;0.80;;
79149;SDS011;68563;45.644;13.782;2023-05-14T10:08:31;1.00;;;0.60;;
79149;SDS011;68563;45.644;13.782;2023-05-14T10:10:59;1.13;;;0.80;;
79149;SDS011;68563;45.644;13.782;2023-05-14T10:13:29;1.75;;;1.02;;
79149;SDS011;68563;45.644;13.782;2023-05-14T10:16:18;1.58;;;0.90;;
79149;SDS011;68563;45.644;13.782;2023-05-14T10:18:53;4.28;;;1.08;;
79149;SDS011;68563;45.644;13.782;2023-05-14T10:21:23;1.77;;;0.90;;
79149;SDS011;68563;45.644;13.782;2023-05-14T10:23:50;1.33;;;1.00;;
79149;SDS011;68563;45.644;13.782;2023-05-14T10:26:16;1.40;;;0.82;;
79149;SDS011;68563;45.644;13.782;2023-05-14T10:28:42;3.10;;;1.33;;
79149;SDS011;68563;45.644;13.782;2023-05-14T10:31:08;1.45;;;1.25;;
79149;SDS011;68563;45.644;13.782;2023-05-14T10:33:44;1.42;;;0.90;;
79149;SDS011;68563;45.644;13.782;2023-05-14T10:36:11;2.08;;;1.10;;
79149;SDS011;68563;45.644;13.782;2023-05-14T10:38:37;2.38;;;1.00;;
79149;SDS011;68563;45.644;13.782;2023-05-14T10:43:30;1.52;;;0.77;;
79149;SDS011;68563;45.644;13.782;2023-05-14T10:46:00;1.90;;;0.90;;
79149;SDS011;68563;45.644;13.782;2023-05-14T10:48:26;1.65;;;1.00;;
79149;SDS011;68563;45.644;13.782;2023-05-14T10:50:52;0.60;;;0.60;;
79149;SDS011;68563;45.644;13.782;2023-05-14T10:53:19;2.40;;;0.70;;
79149;SDS011;68563;45.644;13.782;2023-05-14T10:55:54;0.90;;;0.70;;
79149;SDS011;68563;45.644;13.782;2023-05-14T10:58:19;0.80;;;0.70;;
79149;SDS011;68563;45.644;13.782;2023-05-14T11:00:46;1.20;;;0.90;;
79149;SDS011;68563;45.644;13.782;2023-05-14T11:03:12;5.28;;;1.33;;
79149;SDS011;68563;45.644;13.782;2023-05-14T11:05:38;1.42;;;0.82;;
79149;SDS011;68563;45.644;13.782;2023-05-14T11:08:05;1.35;;;0.73;;
79149;SDS011;68563;45.644;13.782;2023-05-14T11:10:32;1.10;;;0.77;;
79149;SDS011;68563;45.644;13.782;2023-05-14T11:12:59;1.15;;;0.70;;
79149;SDS011;68563;45.644;13.782;2023-05-14T11:15:25;1.30;;;0.60;;
79149;SDS011;68563;45.644;13.782;2023-05-14T11:17:52;1.38;;;1.00;;
79149;SDS011;68563;45.644;13.782;2023-05-14T11:20:18;0.90;;;0.60;;
79149;SDS011;68563;45.644;13.782;2023-05-14T11:22:45;1.85;;;0.88;;
79149;SDS011;68563;45.644;13.782;2023-05-14T11:25:13;1.00;;;0.90;;
79149;SDS011;68563;45.644;13.782;2023-05-14T11:27:39;1.08;;;0.88;;
79149;SDS011;68563;45.644;13.782;2023-05-14T11:30:16;0.80;;;0.80;;
79149;SDS011;68563;45.644;13.782;2023-05-14T11:32:44;1.27;;;0.80;;
79149;SDS011;68563;45.644;13.782;2023-05-14T11:35:11;1.20;;;1.00;;
79149;SDS011;68563;45.644;13.782;2023-05-14T11:37:48;2.10;;;1.55;;
79149;SDS011;68563;45.644;13.782;2023-05-14T11:40:16;2.55;;;1.10;;
79149;SDS011;68563;45.644;13.782;2023-05-14T11:42:42;4.50;;;1.20;;
79149;SDS011;68563;45.644;13.782;2023-05-14T11:45:24;1.83;;;1.00;;
79149;SDS011;68563;45.644;13.782;2023-05-14T11:48:25;1.98;;;1.20;;
79149;SDS011;68563;45.644;13.782;2023-05-14T11:50:59;1.73;;;1.15;;
79149;SDS011;68563;45.644;13.782;2023-05-14T11:53:25;2.08;;;0.80;;
79149;SDS011;68563;45.644;13.782;2023-05-14T11:56:01;1.67;;;1.02;;
79149;SDS011;68563;45.644;13.782;2023-05-14T12:01:22;1.77;;;0.90;;
79149;SDS011;68563;45.644;13.782;2023-05-14T12:03:48;3.63;;;1.00;;
79149;SDS011;68563;45.644;13.782;2023-05-14T12:06:17;2.25;;;0.85;;
79149;SDS011;68563;45.644;13.782;2023-05-14T12:08:43;1.02;;;0.90;;
79149;SDS011;68563;45.644;13.782;2023-05-14T12:11:11;1.50;;;0.90;;
79149;SDS011;68563;45.644;13.782;2023-05-14T12:13:36;1.08;;;0.70;;
79149;SDS011;68563;45.644;13.782;2023-05-14T12:16:02;1.10;;;0.80;;
79149;SDS011;68563;45.644;13.782;2023-05-14T12:18:28;1.25;;;0.70;;
79149;SDS011;68563;45.644;13.782;2023-05-14T12:20:55;1.88;;;0.98;;
79149;SDS011;68563;45.644;13.782;2023-05-14T12:23:26;2.33;;;1.17;;
79149;SDS011;68563;45.644;13.782;2023-05-14T12:25:53;2.83;;;1.00;;
79149;SDS011;68563;45.644;13.782;2023-05-14T12:28:18;4.80;;;1.23;;
79149;SDS011;68563;45.644;13.782;2023-05-14T12:30:44;4.35;;;1.30;;
79149;SDS011;68563;45.644;13.782;2023-05-14T12:33:11;4.10;;;1.33;;
79149;SDS011;68563;45.644;13.782;2023-05-14T12:35:37;2.63;;;1.33;;
79149;SDS011;68563;45.644;13.782;2023-05-14T12:38:02;2.08;;;0.93;;
79149;SDS011;68563;45.644;13.782;2023-05-14T12:40:28;5.28;;;1.42;;
79149;SDS011;68563;45.644;13.782;2023-05-14T12:42:54;2.78;;;1.10;;
79149;SDS011;68563;45.644;13.782;2023-05-14T12:45:19;2.88;;;1.10;;
79149;SDS011;68563;45.644;13.782;2023-05-14T12:47:45;5.28;;;1.50;;
79149;SDS011;68563;45.644;13.782;2023-05-14T12:50:10;6.57;;;1.52;;
79149;SDS011;68563;45.644;13.782;2023-05-14T12:52:36;3.85;;;0.90;;
79149;SDS011;68563;45.644;13.782;2023-05-14T12:55:01;2.08;;;1.27;;
79149;SDS011;68563;45.644;13.782;2023-05-14T12:57:27;4.57;;;1.17;;
79149;SDS011;68563;45.644;13.782;2023-05-14T12:59:53;3.00;;;1.45;;
79149;SDS011;68563;45.644;13.782;2023-05-14T13:02:19;2.45;;;1.20;;
79149;SDS011;68563;45.644;13.782;2023-05-14T13:04:45;3.25;;;1.00;;
79149;SDS011;68563;45.644;13.782;2023-05-14T13:07:11;3.58;;;1.05;;
79149;SDS011;68563;45.644;13.782;2023-05-14T13:09:36;3.60;;;0.80;;
79149;SDS011;68563;45.644;13.782;2023-05-14T13:12:02;2.88;;;1.08;;
79149;SDS011;68563;45.644;13.782;2023-05-14T13:14:28;3.22;;;0.82;;
79149;SDS011;68563;45.644;13.782;2023-05-14T13:16:53;3.40;;;0.93;;
79149;SDS011;68563;45.644;13.782;2023-05-14T13:19:19;1.50;;;1.02;;
79149;SDS011;68563;45.644;13.782;2023-05-14T13:21:44;2.10;;;0.75;;
79149;SDS011;68563;45.644;13.782;2023-05-14T13:24:10;0.88;;;0.52;;
79149;SDS011;68563;45.644;13.782;2023-05-14T13:26:36;2.45;;;1.17;;
79149;SDS011;68563;45.644;13.782;2023-05-14T13:29:01;1.88;;;1.20;;
79149;SDS011;68563;45.644;13.782;2023-05-14T13:31:27;2.25;;;0.98;;
79149;SDS011;68563;45.644;13.782;2023-05-14T13:33:53;4.38;;;1.20;;
79149;SDS011;68563;45.644;13.782;2023-05-14T13:36:19;3.60;;;1.33;;
79149;SDS011;68563;45.644;13.782;2023-05-14T13:38:44;2.63;;;0.80;;
79149;SDS011;68563;45.644;13.782;2023-05-14T13:41:10;2.85;;;1.10;;
79149;SDS011;68563;45.644;13.782;2023-05-14T13:43:36;2.42;;;0.90;;
79149;SDS011;68563;45.644;13.782;2023-05-14T13:46:02;3.03;;;0.90;;
79149;SDS011;68563;45.644;13.782;2023-05-14T13:48:28;1.25;;;0.70;;
79149;SDS011;68563;45.644;13.782;2023-05-14T13:50:55;1.08;;;0.75;;
79149;SDS011;68563;45.644;13.782;2023-05-14T13:53:21;1.20;;;0.90;;
79149;SDS011;68563;45.644;13.782;2023-05-14T13:55:47;1.85;;;1.10;;
79149;SDS011;68563;45.644;13.782;2023-05-14T13:58:13;1.33;;;0.80;;
79149;SDS011;68563;45.644;13.782;2023-05-14T14:00:38;5.55;;;1.20;;
79149;SDS011;68563;45.644;13.782;2023-05-14T14:03:04;1.70;;;0.90;;
79149;SDS011;68563;45.644;13.782;2023-05-14T14:05:29;4.30;;;1.00;;
79149;SDS011;68563;45.644;13.782;2023-05-14T14:07:55;3.55;;;0.75;;
79149;SDS011;68563;45.644;13.782;2023-05-14T14:10:21;4.78;;;1.13;;
79149;SDS011;68563;45.644;13.782;2023-05-14T14:12:47;3.45;;;0.70;;
79149;SDS011;68563;45.644;13.782;2023-05-14T14:15:12;0.82;;;0.60;;
79149;SDS011;68563;45.644;13.782;2023-05-14T14:17:38;2.97;;;0.77;;
79149;SDS011;68563;45.644;13.782;2023-05-14T14:20:06;1.52;;;1.10;;
79149;SDS011;68563;45.644;13.782;2023-05-14T14:22:32;1.88;;;1.00;;
79149;SDS011;68563;45.644;13.782;2023-05-14T14:24:57;3.42;;;0.80;;
79149;SDS011;68563;45.644;13.782;2023-05-14T14:27:23;1.60;;;1.23;;
79149;SDS011;68563;45.644;13.782;2023-05-14T14:29:48;1.80;;;0.82;;
79149;SDS011;68563;45.644;13.782;2023-05-14T14:32:14;1.65;;;1.00;;
79149;SDS011;68563;45.644;13.782;2023-05-14T14:34:39;1.25;;;1.00;;
79149;SDS011;68563;45.644;13.782;2023-05-14T14:37:05;1.15;;;0.85;;
79149;SDS011;68563;45.644;13.782;2023-05-14T14:39:30;2.03;;;0.95;;
79149;SDS011;68563;45.644;13.782;2023-05-14T14:41:56;2.22;;;1.00;;